createdAt,value
2022-10-24T00:00:15.507Z,14.91
2022-10-24T00:02:42.339Z,14.95
2022-10-24T00:05:11.719Z,14.73
2022-10-24T00:07:38.403Z,14.96
2022-10-24T00:10:05.925Z,14.80
2022-10-24T00:12:32.746Z,15.22
2022-10-24T00:14:59.684Z,15.19
2022-10-24T00:17:26.402Z,15.31
2022-10-24T00:19:54.254Z,15.43
2022-10-24T00:22:21.254Z,15.47
2022-10-24T00:24:47.907Z,15.37
2022-10-24T00:27:14.546Z,15.36
2022-10-24T00:29:41.383Z,15.31
2022-10-24T00:32:08.021Z,15.08
2022-10-24T00:34:34.755Z,15.15
2022-10-24T00:37:02.198Z,15.08
2022-10-24T00:39:28.877Z,14.98
2022-10-24T00:41:58.815Z,14.91
2022-10-24T00:44:28.742Z,14.73
2022-10-24T00:47:05.397Z,14.82
2022-10-24T00:49:43.804Z,14.71
2022-10-24T00:52:11.791Z,14.65
2022-10-24T00:54:40.915Z,14.58
2022-10-24T00:57:22.364Z,14.49
2022-10-24T00:59:55.310Z,13.96
2022-10-24T01:02:22.074Z,14.22
2022-10-24T01:04:48.708Z,14.27
2022-10-24T01:07:26.576Z,14.35
2022-10-24T01:10:08.540Z,14.30
2022-10-24T01:13:16.409Z,14.28
2022-10-24T01:15:52.235Z,14.26
2022-10-24T01:18:31.817Z,14.24
2022-10-24T01:21:12.515Z,14.28
2022-10-24T01:24:00.065Z,14.29
2022-10-24T01:26:35.826Z,14.21
2022-10-24T01:29:17.300Z,14.11
2022-10-24T01:32:03.916Z,14.08
2022-10-24T01:34:45.200Z,14.14
2022-10-24T01:37:28.425Z,13.98
2022-10-24T01:40:00.636Z,13.88
2022-10-24T01:42:31.175Z,13.66
2022-10-24T01:45:01.906Z,13.69
2022-10-24T01:47:37.041Z,13.54
2022-10-24T01:50:09.810Z,13.50
2022-10-24T01:52:39.607Z,13.64
2022-10-24T01:55:06.995Z,13.63
2022-10-24T01:57:34.766Z,13.61
2022-10-24T02:00:05.135Z,13.60
2022-10-24T02:02:47.585Z,13.61
2022-10-24T02:05:20.997Z,13.60
2022-10-24T02:07:53.655Z,13.49
2022-10-24T02:10:30.875Z,13.65
2022-10-24T02:13:03.566Z,13.72
2022-10-24T02:15:36.557Z,13.62
2022-10-24T02:18:03.510Z,13.49
2022-10-24T02:20:46.936Z,13.66
2022-10-24T02:23:21.125Z,13.71
2022-10-24T02:25:52.269Z,13.70
2022-10-24T02:28:26.316Z,13.61
2022-10-24T02:31:12.129Z,13.50
2022-10-24T02:33:41.911Z,13.67
2022-10-24T02:36:12.154Z,13.66
2022-10-24T02:38:42.737Z,13.65
2022-10-24T02:41:13.828Z,13.59
2022-10-24T02:43:42.653Z,13.70
2022-10-24T02:46:11.169Z,13.64
2022-10-24T02:48:44.419Z,13.54
2022-10-24T02:51:14.204Z,13.27
2022-10-24T02:53:40.958Z,13.45
2022-10-24T02:56:07.777Z,13.39
2022-10-24T02:58:34.390Z,13.06
2022-10-24T03:01:01.227Z,13.28
2022-10-24T03:03:28.061Z,13.32
2022-10-24T03:05:54.699Z,13.22
2022-10-24T03:08:21.452Z,13.29
2022-10-24T03:10:48.034Z,13.19
2022-10-24T03:13:14.717Z,13.18
2022-10-24T03:15:41.413Z,13.35
2022-10-24T03:18:08.083Z,13.30
2022-10-24T03:20:34.840Z,13.12
2022-10-24T03:23:01.656Z,13.28
2022-10-24T03:25:28.381Z,13.27
2022-10-24T03:27:55.016Z,13.25
2022-10-24T03:30:21.679Z,12.89
2022-10-24T03:32:48.538Z,13.36
2022-10-24T03:35:16.476Z,13.42
2022-10-24T03:37:43.489Z,13.47
2022-10-24T03:40:11.543Z,13.55
2022-10-24T03:42:38.569Z,13.50
2022-10-24T03:45:06.189Z,13.64
2022-10-24T03:47:33.445Z,13.51
2022-10-24T03:50:00.653Z,13.47
2022-10-24T03:52:27.985Z,13.61
2022-10-24T03:54:54.648Z,13.51
2022-10-24T03:59:52.931Z,13.53
2022-10-24T04:02:19.656Z,13.78
2022-10-24T04:04:46.352Z,13.71
2022-10-24T04:07:12.985Z,13.86
2022-10-24T04:09:39.730Z,13.74
2022-10-24T04:12:06.431Z,13.56
2022-10-24T04:14:33.156Z,13.78
2022-10-24T04:16:59.861Z,13.62
2022-10-24T04:19:26.531Z,13.72
2022-10-24T04:21:53.549Z,13.81
2022-10-24T04:24:20.249Z,13.68
2022-10-24T04:26:47.466Z,13.81
2022-10-24T04:29:17.451Z,13.69
2022-10-24T04:31:44.086Z,13.52
2022-10-24T04:34:10.953Z,13.72
2022-10-24T04:36:37.597Z,13.65
2022-10-24T04:39:04.831Z,13.69
2022-10-24T04:41:31.544Z,13.57
2022-10-24T04:43:58.452Z,13.73
2022-10-24T04:46:25.346Z,13.75
2022-10-24T04:48:53.504Z,13.77
2022-10-24T04:51:22.393Z,13.86
2022-10-24T04:53:50.484Z,13.74
2022-10-24T04:56:18.779Z,13.89
2022-10-24T04:58:45.935Z,13.91
2022-10-24T05:01:12.815Z,14.05
2022-10-24T05:03:39.519Z,14.00
2022-10-24T05:06:06.280Z,13.72
2022-10-24T05:08:33.011Z,13.75
2022-10-24T05:10:59.629Z,13.65
2022-10-24T05:13:26.345Z,13.74
2022-10-24T05:15:52.993Z,13.84
2022-10-24T05:18:19.634Z,13.83
2022-10-24T05:20:46.618Z,13.90
2022-10-24T05:23:13.328Z,13.94
2022-10-24T05:25:40.061Z,14.36
2022-10-24T05:28:06.682Z,14.60
2022-10-24T05:30:33.372Z,14.32
2022-10-24T05:33:00.091Z,14.33
2022-10-24T05:35:26.697Z,14.22
2022-10-24T05:37:53.353Z,14.08
2022-10-24T05:40:20.186Z,14.03
2022-10-24T05:42:47.209Z,13.95
2022-10-24T05:45:14.146Z,14.02
2022-10-24T05:47:40.801Z,13.98
2022-10-24T05:50:08.158Z,13.95
2022-10-24T05:52:36.371Z,14.34
2022-10-24T05:55:08.204Z,14.52
2022-10-24T05:57:37.568Z,14.67
2022-10-24T06:00:09.251Z,14.87
2022-10-24T06:02:39.792Z,14.83
2022-10-24T06:05:07.820Z,15.05
2022-10-24T06:07:35.235Z,15.14
2022-10-24T06:10:04.515Z,15.18
2022-10-24T06:12:31.258Z,15.13
2022-10-24T06:14:59.122Z,15.04
2022-10-24T06:17:26.077Z,14.87
2022-10-24T06:19:52.768Z,14.70
2022-10-24T06:22:19.562Z,14.78
2022-10-24T06:24:46.432Z,14.79
2022-10-24T06:27:13.329Z,14.78
2022-10-24T06:29:39.990Z,14.78
2022-10-24T06:32:06.712Z,14.83
2022-10-24T06:34:33.597Z,14.87
2022-10-24T06:37:00.292Z,14.81
2022-10-24T06:39:27.009Z,14.94
2022-10-24T06:41:53.722Z,14.98
2022-10-24T06:44:20.418Z,15.01
2022-10-24T06:46:47.158Z,15.01
2022-10-24T06:49:14.905Z,14.94
2022-10-24T06:51:41.709Z,14.94
2022-10-24T06:54:08.799Z,14.99
2022-10-24T06:56:35.743Z,14.88
2022-10-24T06:59:02.485Z,14.92
2022-10-24T07:01:29.344Z,14.90
2022-10-24T07:03:56.114Z,14.71
2022-10-24T07:06:28.489Z,14.85
2022-10-24T07:08:57.451Z,14.85
2022-10-24T07:11:24.591Z,14.80
2022-10-24T07:13:53.279Z,14.82
2022-10-24T07:16:23.259Z,14.91
2022-10-24T07:18:50.021Z,14.95
2022-10-24T07:21:20.717Z,14.98
2022-10-24T07:23:47.530Z,14.97
2022-10-24T07:26:17.577Z,15.02
2022-10-24T07:28:46.590Z,14.85
2022-10-24T07:31:17.354Z,14.98
2022-10-24T07:33:44.185Z,14.97
2022-10-24T07:36:15.616Z,14.91
2022-10-24T07:38:42.250Z,15.00
2022-10-24T07:41:08.994Z,14.99
2022-10-24T07:43:35.673Z,15.01
2022-10-24T07:46:06.480Z,15.05
2022-10-24T07:48:33.683Z,15.03
2022-10-24T07:51:00.857Z,15.03
2022-10-24T07:53:27.581Z,15.26
2022-10-24T07:55:54.749Z,15.31
2022-10-24T07:58:21.412Z,15.35
2022-10-24T08:00:48.074Z,15.40
2022-10-24T08:03:14.812Z,15.44
2022-10-24T08:05:41.682Z,15.50
2022-10-24T08:08:27.331Z,15.25
2022-10-24T08:10:55.839Z,15.38
2022-10-24T08:13:22.625Z,15.42
2022-10-24T08:15:49.391Z,15.28
2022-10-24T08:18:16.044Z,15.45
2022-10-24T08:20:42.951Z,15.34
2022-10-24T08:23:09.814Z,15.50
2022-10-24T08:25:40.035Z,15.30
2022-10-24T08:28:09.004Z,15.50
2022-10-24T08:30:36.075Z,15.49
2022-10-24T08:33:02.847Z,15.58
2022-10-24T08:35:29.535Z,15.93
2022-10-24T08:37:56.240Z,16.13
2022-10-24T08:40:23.163Z,16.20
2022-10-24T08:42:50.267Z,16.10
2022-10-24T08:45:27.107Z,16.24
2022-10-24T08:48:04.909Z,16.27
2022-10-24T08:50:34.661Z,16.34
2022-10-24T08:53:06.729Z,16.40
2022-10-24T08:55:54.711Z,16.44
2022-10-24T08:58:38.287Z,16.46
2022-10-24T09:01:13.293Z,16.52
2022-10-24T09:03:57.505Z,16.55
2022-10-24T09:06:27.647Z,16.52
2022-10-24T09:09:17.700Z,16.54
2022-10-24T09:12:03.908Z,16.47
2022-10-24T09:14:33.452Z,16.59
2022-10-24T09:17:14.864Z,16.68
2022-10-24T09:19:47.539Z,16.79
2022-10-24T09:22:14.599Z,16.88
2022-10-24T09:24:46.013Z,16.91
2022-10-24T09:27:18.195Z,17.09
2022-10-24T09:29:45.205Z,17.07
2022-10-24T09:32:18.436Z,17.12
2022-10-24T09:34:45.411Z,17.17
2022-10-24T09:37:44.176Z,17.22
2022-10-24T09:40:26.248Z,17.26
2022-10-24T09:43:18.764Z,17.29
2022-10-24T09:45:50.705Z,17.42
2022-10-24T09:48:45.393Z,17.62
2022-10-24T09:51:49.724Z,17.75
2022-10-24T09:54:19.176Z,17.84
2022-10-24T09:56:55.285Z,17.94
2022-10-24T09:59:38.702Z,18.04
2022-10-24T10:02:12.760Z,18.16
2022-10-24T10:04:41.427Z,18.21
2022-10-24T10:07:14.895Z,18.20
2022-10-24T10:09:55.604Z,18.38
2022-10-24T10:12:28.839Z,18.45
2022-10-24T10:14:55.871Z,18.38
2022-10-24T10:17:26.510Z,18.48
2022-10-24T10:19:55.343Z,18.41
2022-10-24T10:22:34.441Z,18.33
2022-10-24T10:25:01.114Z,18.44
2022-10-24T10:27:35.332Z,18.42
2022-10-24T10:30:17.219Z,18.37
2022-10-24T10:32:52.878Z,18.26
2022-10-24T10:35:24.787Z,18.21
2022-10-24T10:37:58.448Z,18.21
2022-10-24T10:40:40.076Z,18.28
2022-10-24T10:43:48.624Z,18.29
2022-10-24T10:46:37.131Z,18.24
2022-10-24T10:49:31.278Z,18.45
2022-10-24T10:52:22.215Z,18.48
2022-10-24T10:55:10.276Z,18.57
2022-10-24T10:58:21.552Z,18.49
2022-10-24T11:01:18.531Z,18.50
2022-10-24T11:04:32.181Z,18.38
2022-10-24T11:07:07.783Z,18.40
2022-10-24T11:09:44.465Z,18.29
2022-10-24T11:12:20.114Z,18.17
2022-10-24T11:15:03.363Z,17.79
2022-10-24T11:17:38.763Z,17.79
2022-10-24T11:20:23.705Z,17.66
2022-10-24T11:23:20.076Z,17.53
2022-10-24T11:25:52.312Z,17.63
2022-10-24T11:28:34.015Z,17.76
2022-10-24T11:31:18.629Z,17.83
2022-10-24T11:33:57.101Z,17.92
2022-10-24T11:36:28.743Z,17.50
2022-10-24T11:39:08.167Z,17.52
2022-10-24T11:41:50.082Z,17.52
2022-10-24T11:44:45.929Z,17.54
2022-10-24T11:47:24.615Z,17.45
2022-10-24T11:50:13.299Z,17.52
2022-10-24T11:52:44.904Z,17.70
2022-10-24T11:55:21.588Z,17.93
2022-10-24T11:57:56.190Z,18.20
2022-10-24T12:00:52.819Z,18.33
2022-10-24T12:03:51.092Z,18.28
2022-10-24T12:06:48.534Z,18.44
2022-10-24T12:09:35.140Z,18.49
2022-10-24T12:12:20.562Z,18.53
2022-10-24T12:14:56.453Z,18.64
2022-10-24T12:17:42.230Z,18.67
2022-10-24T12:20:15.250Z,18.72
2022-10-24T12:22:44.514Z,18.87
2022-10-24T12:25:37.649Z,19.11
2022-10-24T12:28:08.630Z,19.09
2022-10-24T12:30:36.488Z,19.26
2022-10-24T12:33:03.111Z,19.38
2022-10-24T12:35:34.234Z,19.30
2022-10-24T12:38:03.239Z,19.31
2022-10-24T12:40:55.444Z,19.50
2022-10-24T12:43:28.873Z,19.83
2022-10-24T12:46:00.160Z,20.22
2022-10-24T12:48:35.873Z,20.52
2022-10-24T12:51:31.361Z,20.57
2022-10-24T12:54:13.279Z,20.51
2022-10-24T12:56:52.530Z,20.61
2022-10-24T12:59:26.383Z,20.58
2022-10-24T13:02:13.425Z,20.47
2022-10-24T13:04:55.694Z,20.53
2022-10-24T13:07:40.413Z,20.54
2022-10-24T13:10:42.736Z,20.58
2022-10-24T13:13:33.942Z,20.75
2022-10-24T13:16:13.205Z,20.75
2022-10-24T13:19:00.880Z,21.01
2022-10-24T13:21:31.335Z,21.30
2022-10-24T13:24:22.215Z,21.55
2022-10-24T13:26:55.848Z,21.54
2022-10-24T13:29:28.388Z,21.55
2022-10-24T13:32:18.594Z,21.61
2022-10-24T13:34:52.377Z,21.85
2022-10-24T13:37:25.070Z,21.65
2022-10-24T13:40:08.351Z,21.41
2022-10-24T13:42:55.338Z,21.45
2022-10-24T13:45:33.711Z,21.55
2022-10-24T13:48:08.100Z,21.60
2022-10-24T13:50:41.161Z,21.73
2022-10-24T13:53:30.310Z,21.86
2022-10-24T13:56:02.573Z,21.55
2022-10-24T13:58:42.127Z,21.74
2022-10-24T14:01:27.586Z,21.93
2022-10-24T14:03:56.199Z,21.93
2022-10-24T14:06:33.631Z,21.93
2022-10-24T14:09:07.484Z,21.64
2022-10-24T14:11:39.554Z,21.38
2022-10-24T14:14:14.129Z,20.91
2022-10-24T14:16:40.820Z,20.92
2022-10-24T14:19:15.357Z,21.01
2022-10-24T14:21:48.289Z,20.93
2022-10-24T14:24:18.425Z,20.69
2022-10-24T14:26:46.817Z,20.48
2022-10-24T14:29:23.266Z,20.40
2022-10-24T14:31:59.969Z,20.27
2022-10-24T14:34:30.426Z,20.11
2022-10-24T14:37:06.578Z,20.01
2022-10-24T14:39:34.128Z,19.95
2022-10-24T14:42:02.197Z,19.80
2022-10-24T14:44:29.388Z,19.85
2022-10-24T14:47:03.258Z,19.73
2022-10-24T14:49:36.567Z,19.85
2022-10-24T14:52:12.759Z,19.98
2022-10-24T14:54:42.656Z,20.23
2022-10-24T14:57:18.864Z,20.18
2022-10-24T14:59:47.634Z,20.22
2022-10-24T15:02:28.828Z,20.16
2022-10-24T15:05:20.417Z,20.03
2022-10-24T15:08:09.208Z,19.87
2022-10-24T15:10:38.766Z,19.81
2022-10-24T15:13:17.430Z,19.78
2022-10-24T15:15:44.040Z,19.74
2022-10-24T15:18:40.769Z,19.61
2022-10-24T15:21:14.446Z,19.42
2022-10-24T15:23:54.718Z,19.12
2022-10-24T15:26:34.677Z,19.18
2022-10-24T15:29:19.151Z,19.07
2022-10-24T15:31:48.153Z,18.96
2022-10-24T15:34:17.593Z,18.85
2022-10-24T15:36:46.937Z,18.82
2022-10-24T15:39:17.687Z,18.84
2022-10-24T15:41:44.415Z,18.84
2022-10-24T15:44:17.568Z,18.79
2022-10-24T15:46:45.254Z,18.76
2022-10-24T15:49:12.581Z,18.72
2022-10-24T15:51:45.922Z,18.51
2022-10-24T15:54:17.652Z,18.51
2022-10-24T15:56:44.407Z,18.48
2022-10-24T15:59:11.266Z,18.40
2022-10-24T16:01:42.598Z,18.39
2022-10-24T16:04:10.380Z,18.32
2022-10-24T16:06:37.288Z,18.20
2022-10-24T16:09:06.716Z,17.99
2022-10-24T16:11:33.494Z,17.84
2022-10-24T16:14:00.217Z,17.76
2022-10-24T16:16:27.040Z,17.79
2022-10-24T16:18:53.780Z,17.84
2022-10-24T16:21:21.388Z,17.93
2022-10-24T16:23:48.702Z,17.71
2022-10-24T16:26:16.123Z,17.94
2022-10-24T16:28:42.838Z,17.91
2022-10-24T16:31:11.326Z,17.75
2022-10-24T16:33:38.030Z,17.69
2022-10-24T16:36:04.915Z,17.88
2022-10-24T16:38:31.668Z,17.90
2022-10-24T16:40:58.478Z,17.88
2022-10-24T16:43:25.177Z,17.87
2022-10-24T16:45:59.591Z,17.94
2022-10-24T16:48:26.820Z,17.82
2022-10-24T16:50:53.959Z,17.80
2022-10-24T16:53:21.775Z,17.66
2022-10-24T16:55:50.316Z,17.75
2022-10-24T16:58:18.503Z,17.73
2022-10-24T17:00:46.600Z,17.73
2022-10-24T17:03:13.767Z,17.67
2022-10-24T17:05:40.938Z,17.76
2022-10-24T17:08:07.717Z,17.69
2022-10-24T17:10:34.450Z,17.75
2022-10-24T17:13:01.923Z,17.57
2022-10-24T17:15:28.728Z,17.53
2022-10-24T17:17:55.464Z,17.40
2022-10-24T17:20:22.178Z,17.31
2022-10-24T17:22:49.489Z,17.12
2022-10-24T17:25:23.009Z,17.05
2022-10-24T17:27:50.141Z,16.98
2022-10-24T17:30:25.885Z,17.11
2022-10-24T17:32:53.511Z,17.08
2022-10-24T17:35:22.529Z,16.92
2022-10-24T17:38:01.426Z,16.91
2022-10-24T17:40:34.991Z,16.91
2022-10-24T17:43:03.013Z,16.96
2022-10-24T17:45:29.931Z,16.94
2022-10-24T17:47:56.784Z,16.92
2022-10-24T17:50:23.478Z,16.82
2022-10-24T17:52:51.276Z,16.62
2022-10-24T17:55:40.974Z,16.81
2022-10-24T17:58:07.896Z,16.65
2022-10-24T18:00:35.272Z,16.78
2022-10-24T18:03:03.478Z,16.79
2022-10-24T18:05:30.405Z,16.78
2022-10-24T18:07:58.031Z,16.89
2022-10-24T18:10:26.061Z,16.81
2022-10-24T18:12:52.918Z,16.85
2022-10-24T18:15:20.774Z,17.06
2022-10-24T18:17:48.244Z,17.12
2022-10-24T18:20:16.200Z,17.24
2022-10-24T18:22:44.103Z,17.24
2022-10-24T18:25:12.750Z,17.22
2022-10-24T18:27:41.096Z,17.11
2022-10-24T18:30:09.012Z,17.02
2022-10-24T18:32:35.938Z,17.00
2022-10-24T18:35:03.155Z,16.91
2022-10-24T18:37:29.985Z,16.75
2022-10-24T18:39:56.932Z,16.48
2022-10-24T18:42:59.686Z,16.68
2022-10-24T18:45:27.645Z,16.57
2022-10-24T18:47:54.883Z,16.61
2022-10-24T18:50:23.797Z,16.52
2022-10-24T18:52:53.463Z,16.37
2022-10-24T18:55:29.157Z,16.21
2022-10-24T18:57:56.398Z,15.89
2022-10-24T19:00:25.432Z,15.72
2022-10-24T19:03:25.126Z,15.78
2022-10-24T19:05:55.814Z,15.78
2022-10-24T19:08:25.238Z,15.77
2022-10-24T19:10:55.117Z,15.65
2022-10-24T19:13:27.058Z,15.46
2022-10-24T19:16:00.113Z,15.39
2022-10-24T19:18:29.762Z,15.40
2022-10-24T19:20:59.955Z,15.31
2022-10-24T19:23:26.714Z,15.33
2022-10-24T19:25:53.830Z,15.23
2022-10-24T19:28:20.816Z,15.20
2022-10-24T19:30:48.355Z,15.21
2022-10-24T19:33:16.367Z,15.14
2022-10-24T19:35:47.391Z,15.12
2022-10-24T19:38:16.190Z,15.14
2022-10-24T19:40:54.170Z,15.09
2022-10-24T19:43:25.758Z,15.09
2022-10-24T19:46:07.650Z,15.09
2022-10-24T19:48:42.586Z,14.86
2022-10-24T19:51:12.286Z,14.92
2022-10-24T19:53:40.972Z,14.87
2022-10-24T19:56:10.749Z,14.89
2022-10-24T19:58:37.817Z,14.93
2022-10-24T20:01:10.003Z,14.91
2022-10-24T20:03:40.733Z,14.95
2022-10-24T20:06:07.948Z,15.00
2022-10-24T20:08:35.186Z,14.98
2022-10-24T20:11:02.643Z,15.01
2022-10-24T20:13:29.659Z,14.80
2022-10-24T20:16:05.505Z,14.74
2022-10-24T20:18:34.373Z,14.98
2022-10-24T20:21:07.037Z,14.96
2022-10-24T20:23:35.115Z,15.13
2022-10-24T20:26:09.615Z,15.20
2022-10-24T20:28:43.264Z,15.23
2022-10-24T20:31:28.366Z,15.25
2022-10-24T20:34:05.175Z,15.20
2022-10-24T20:36:37.514Z,15.28
2022-10-24T20:39:06.260Z,15.27
2022-10-24T20:41:33.698Z,15.13
2022-10-24T20:44:01.222Z,15.25
2022-10-24T20:46:27.985Z,15.03
2022-10-24T20:48:54.914Z,14.97
2022-10-24T20:51:22.104Z,14.89
2022-10-24T20:53:49.461Z,14.90
2022-10-24T20:56:18.786Z,14.98
2022-10-24T20:58:45.768Z,14.98
2022-10-24T21:01:26.939Z,14.92
2022-10-24T21:03:55.109Z,14.86
2022-10-24T21:06:27.443Z,14.78
2022-10-24T21:08:56.613Z,14.73
2022-10-24T21:11:26.541Z,14.60
2022-10-24T21:13:59.277Z,14.62
2022-10-24T21:16:26.947Z,14.54
2022-10-24T21:18:54.465Z,14.21
2022-10-24T21:21:22.643Z,14.46
2022-10-24T21:23:54.363Z,14.46
2022-10-24T21:26:21.780Z,14.41
2022-10-24T21:28:49.057Z,14.34
2022-10-24T21:31:18.463Z,14.24
2022-10-24T21:33:45.574Z,14.22
2022-10-24T21:36:15.009Z,14.19
2022-10-24T21:38:45.605Z,14.07
2022-10-24T21:41:12.356Z,14.03
2022-10-24T21:43:41.067Z,13.96
2022-10-24T21:46:16.516Z,13.98
2022-10-24T21:48:43.805Z,13.99
2022-10-24T21:51:14.651Z,13.95
2022-10-24T21:53:46.699Z,13.88
2022-10-24T21:56:16.455Z,13.88
2022-10-24T21:58:51.333Z,13.89
2022-10-24T22:01:20.572Z,13.90
2022-10-24T22:03:47.828Z,13.88
2022-10-24T22:06:16.754Z,13.84
2022-10-24T22:08:44.866Z,13.81
2022-10-24T22:11:14.210Z,13.61
2022-10-24T22:13:41.733Z,13.68
2022-10-24T22:16:10.222Z,13.62
2022-10-24T22:18:37.134Z,13.56
2022-10-24T22:21:06.103Z,13.33
2022-10-24T22:23:33.192Z,13.33
2022-10-24T22:26:02.053Z,13.34
2022-10-24T22:28:28.828Z,13.20
2022-10-24T22:30:55.857Z,13.19
2022-10-24T22:33:35.404Z,13.00
2022-10-24T22:36:39.541Z,13.15
2022-10-24T22:39:14.482Z,13.22
2022-10-24T22:41:42.090Z,13.21
2022-10-24T22:44:11.162Z,13.16
2022-10-24T22:47:02.304Z,12.80
2022-10-24T22:49:35.095Z,12.85
2022-10-24T22:52:02.025Z,12.77
2022-10-24T22:54:35.024Z,12.74
2022-10-24T22:57:03.126Z,12.71
2022-10-24T22:59:30.244Z,12.73
2022-10-24T23:02:03.122Z,12.72
2022-10-24T23:04:36.340Z,12.70
2022-10-24T23:07:25.096Z,12.62
2022-10-24T23:09:54.133Z,12.63
2022-10-24T23:12:22.298Z,12.45
2022-10-24T23:14:50.741Z,12.62
2022-10-24T23:17:22.336Z,12.61
2022-10-24T23:19:49.627Z,12.43
2022-10-24T23:22:25.256Z,12.50
2022-10-24T23:24:54.444Z,12.46
2022-10-24T23:27:38.333Z,12.46
2022-10-24T23:30:22.741Z,12.28
2022-10-24T23:32:51.047Z,12.22
2022-10-24T23:35:19.605Z,12.14
2022-10-24T23:37:50.906Z,12.10
2022-10-24T23:40:17.526Z,12.06
2022-10-24T23:42:45.781Z,11.98
2022-10-24T23:45:14.690Z,11.95
2022-10-24T23:47:43.943Z,11.88
2022-10-24T23:50:16.622Z,11.80
2022-10-24T23:52:55.137Z,11.79
2022-10-24T23:55:22.132Z,11.73
2022-10-24T23:57:48.922Z,11.71
